createdAt,value
2017-11-15T00:00:34.179Z,0
2017-11-15T00:01:34.287Z,0
2017-11-15T00:02:33.689Z,0
2017-11-15T00:03:33.968Z,0
2017-11-15T00:04:33.740Z,0
2017-11-15T00:05:34.253Z,0
2017-11-15T00:06:34.280Z,0
2017-11-15T00:07:34.024Z,0
2017-11-15T00:08:34.320Z,0
2017-11-15T00:09:33.799Z,0
2017-11-15T00:10:34.079Z,0
2017-11-15T00:11:34.346Z,0
2017-11-15T00:12:34.360Z,0
2017-11-15T00:13:34.124Z,0
2017-11-15T00:14:34.389Z,0
2017-11-15T00:15:34.156Z,0
2017-11-15T00:16:33.675Z,0
2017-11-15T00:17:34.329Z,0
2017-11-15T00:18:33.935Z,0
2017-11-15T00:19:34.469Z,0
2017-11-15T00:20:34.491Z,0
2017-11-15T00:21:34.510Z,0
2017-11-15T00:22:34.516Z,0
2017-11-15T00:23:34.543Z,0
2017-11-15T00:24:34.324Z,0
2017-11-15T00:25:34.562Z,0
2017-11-15T00:26:34.577Z,0
2017-11-15T00:27:34.591Z,0
2017-11-15T00:28:33.834Z,0
2017-11-15T00:29:34.618Z,0
2017-11-15T00:30:34.630Z,0
2017-11-15T00:31:34.390Z,0
2017-11-15T00:32:34.669Z,0
2017-11-15T00:33:34.681Z,0
2017-11-15T00:34:34.696Z,0
2017-11-15T00:35:34.722Z,0
2017-11-15T00:36:34.774Z,0
2017-11-15T00:37:34.752Z,0
2017-11-15T00:38:34.758Z,0
2017-11-15T00:39:34.510Z,0
2017-11-15T00:40:34.273Z,0
2017-11-15T00:41:34.288Z,0
2017-11-15T00:42:34.562Z,0
2017-11-15T00:43:34.325Z,0
2017-11-15T00:44:34.842Z,0
2017-11-15T00:45:34.861Z,0
2017-11-15T00:46:34.971Z,0
2017-11-15T00:47:34.911Z,0
2017-11-15T00:48:34.913Z,0
2017-11-15T00:49:34.662Z,0
2017-11-15T00:50:34.680Z,0
2017-11-15T00:51:34.485Z,0
2017-11-15T00:52:34.446Z,0
2017-11-15T00:53:34.981Z,0
2017-11-15T00:54:34.482Z,0
2017-11-15T00:55:34.760Z,0
2017-11-15T00:56:34.777Z,0
2017-11-15T00:57:34.783Z,0
2017-11-15T00:58:35.064Z,0
2017-11-15T00:59:34.825Z,0
2017-11-15T01:00:34.828Z,0
2017-11-15T01:01:35.101Z,0
2017-11-15T01:02:34.597Z,0
2017-11-15T01:03:35.128Z,0
2017-11-15T01:04:34.898Z,0
2017-11-15T01:05:35.160Z,0
2017-11-15T01:06:34.705Z,0
2017-11-15T01:07:35.178Z,0
2017-11-15T01:08:34.950Z,0
2017-11-15T01:09:35.213Z,0
2017-11-15T01:10:35.266Z,0
2017-11-15T01:11:34.984Z,0
2017-11-15T01:12:35.260Z,0
2017-11-15T01:13:34.760Z,0
2017-11-15T01:14:35.313Z,0
2017-11-15T01:15:35.060Z,0
2017-11-15T01:16:35.159Z,0
2017-11-15T01:17:35.078Z,0
2017-11-15T01:18:35.096Z,0
2017-11-15T01:19:35.398Z,0
2017-11-15T01:20:34.862Z,0
2017-11-15T01:21:35.538Z,0
2017-11-15T01:22:35.406Z,0
2017-11-15T01:23:35.159Z,0
2017-11-15T01:24:35.190Z,0
2017-11-15T01:25:35.191Z,0
2017-11-15T01:26:35.209Z,0
2017-11-15T01:27:35.476Z,0
2017-11-15T01:28:34.723Z,0
2017-11-15T01:29:35.251Z,0
2017-11-15T01:30:35.535Z,0
2017-11-15T01:31:35.291Z,0
2017-11-15T01:32:35.550Z,0
2017-11-15T01:33:35.307Z,0
2017-11-15T01:34:35.323Z,0
2017-11-15T01:35:35.094Z,0
2017-11-15T01:36:35.152Z,0
2017-11-15T01:37:35.368Z,0
2017-11-15T01:38:35.384Z,0
2017-11-15T01:39:35.141Z,0
2017-11-15T01:40:35.684Z,0
2017-11-15T01:41:35.428Z,0
2017-11-15T01:42:35.441Z,0
2017-11-15T01:43:35.711Z,0
2017-11-15T01:44:35.730Z,0
2017-11-15T01:45:35.752Z,0
2017-11-15T01:46:35.753Z,0
2017-11-15T01:47:35.517Z,0
2017-11-15T01:48:35.534Z,0
2017-11-15T01:49:35.798Z,0
2017-11-15T01:50:35.580Z,0
2017-11-15T01:51:35.882Z,0
2017-11-15T01:52:35.847Z,0
2017-11-15T01:53:35.607Z,0
2017-11-15T01:54:35.361Z,0
2017-11-15T01:55:35.912Z,0
2017-11-15T01:56:35.642Z,0
2017-11-15T01:57:35.422Z,0
2017-11-15T01:58:35.677Z,0
2017-11-15T01:59:35.945Z,0
2017-11-15T02:00:35.711Z,0
2017-11-15T02:01:35.717Z,0
2017-11-15T02:02:35.996Z,0
2017-11-15T02:03:35.778Z,0
2017-11-15T02:04:36.022Z,0
2017-11-15T02:05:35.778Z,0
2017-11-15T02:06:35.807Z,0
2017-11-15T02:07:36.068Z,0
2017-11-15T02:08:35.566Z,0
2017-11-15T02:09:35.836Z,0
2017-11-15T02:10:35.900Z,0
2017-11-15T02:11:35.878Z,0
2017-11-15T02:12:35.884Z,0
2017-11-15T02:13:35.644Z,0
2017-11-15T02:14:35.654Z,0
2017-11-15T02:15:35.923Z,0
2017-11-15T02:16:35.987Z,0
2017-11-15T02:17:35.952Z,0
2017-11-15T02:18:36.222Z,0
2017-11-15T02:19:35.979Z,0
2017-11-15T02:20:36.265Z,0
2017-11-15T02:21:35.750Z,0
2017-11-15T02:22:36.296Z,0
2017-11-15T02:23:36.305Z,0
2017-11-15T02:24:35.796Z,0
2017-11-15T02:25:36.328Z,0
2017-11-15T02:26:35.843Z,0
2017-11-15T02:27:35.889Z,0
2017-11-15T02:28:35.853Z,0
2017-11-15T02:29:36.122Z,0
2017-11-15T02:30:36.406Z,0
2017-11-15T02:31:36.410Z,0
2017-11-15T02:32:36.444Z,0
2017-11-15T02:33:36.443Z,0
2017-11-15T02:34:35.936Z,0
2017-11-15T02:35:36.214Z,0
2017-11-15T02:36:36.225Z,0
2017-11-15T02:37:35.986Z,0
2017-11-15T02:38:35.998Z,0
2017-11-15T02:39:36.279Z,0
2017-11-15T02:40:36.287Z,0
2017-11-15T02:41:36.311Z,0
2017-11-15T02:42:36.057Z,0
2017-11-15T02:43:36.071Z,0
2017-11-15T02:44:36.673Z,0
2017-11-15T02:45:36.101Z,0
2017-11-15T02:46:36.113Z,0
2017-11-15T02:47:36.487Z,0
2017-11-15T02:48:36.446Z,0
2017-11-15T02:49:36.416Z,0
2017-11-15T02:50:36.691Z,0
2017-11-15T02:51:36.449Z,0
2017-11-15T02:52:36.205Z,0
2017-11-15T02:53:36.478Z,0
2017-11-15T02:54:36.236Z,0
2017-11-15T02:55:36.795Z,0
2017-11-15T02:56:36.523Z,0
2017-11-15T02:57:36.792Z,0
2017-11-15T02:58:36.812Z,0
2017-11-15T02:59:36.614Z,0
2017-11-15T03:00:37.046Z,0
2017-11-15T03:01:36.841Z,0
2017-11-15T03:02:36.860Z,0
2017-11-15T03:03:36.642Z,0
2017-11-15T03:04:36.883Z,0
2017-11-15T03:05:36.894Z,0
2017-11-15T03:06:36.909Z,0
2017-11-15T03:07:36.676Z,0
2017-11-15T03:08:36.686Z,0
2017-11-15T03:09:36.441Z,0
2017-11-15T03:10:36.988Z,0
2017-11-15T03:11:36.729Z,0
2017-11-15T03:12:37.011Z,0
2017-11-15T03:13:36.758Z,0
2017-11-15T03:14:37.096Z,0
2017-11-15T03:15:36.783Z,0
2017-11-15T03:16:36.544Z,0
2017-11-15T03:17:37.087Z,0
2017-11-15T03:18:36.577Z,0
2017-11-15T03:19:36.843Z,0
2017-11-15T03:20:36.865Z,0
2017-11-15T03:21:37.133Z,0
2017-11-15T03:22:37.185Z,0
2017-11-15T03:23:36.900Z,0
2017-11-15T03:24:37.216Z,0
2017-11-15T03:25:36.946Z,0
2017-11-15T03:26:36.689Z,0
2017-11-15T03:27:36.960Z,0
2017-11-15T03:28:36.972Z,0
2017-11-15T03:29:36.908Z,0
2017-11-15T03:30:37.012Z,0
2017-11-15T03:31:36.763Z,0
2017-11-15T03:32:36.812Z,0
2017-11-15T03:33:37.044Z,0
2017-11-15T03:34:37.323Z,0
2017-11-15T03:35:36.817Z,0
2017-11-15T03:36:37.363Z,0
2017-11-15T03:37:37.371Z,0
2017-11-15T03:38:37.381Z,0
2017-11-15T03:39:37.130Z,0
2017-11-15T03:40:37.157Z,0
2017-11-15T03:41:37.426Z,0
2017-11-15T03:42:37.436Z,0
2017-11-15T03:43:37.448Z,0
2017-11-15T03:44:37.207Z,0
2017-11-15T03:45:37.527Z,0
2017-11-15T03:46:37.502Z,0
2017-11-15T03:47:37.512Z,0
2017-11-15T03:48:37.268Z,0
2017-11-15T03:49:37.536Z,0
2017-11-15T03:50:37.558Z,0
2017-11-15T03:51:37.306Z,0
2017-11-15T03:52:37.574Z,0
2017-11-15T03:53:37.334Z,0
2017-11-15T03:54:37.206Z,0
2017-11-15T03:55:37.363Z,0
2017-11-15T03:56:37.625Z,0
2017-11-15T03:57:37.646Z,0
2017-11-15T03:58:37.655Z,0
2017-11-15T03:59:37.413Z,0
2017-11-15T04:00:37.444Z,0
2017-11-15T04:01:37.445Z,0
2017-11-15T04:02:37.743Z,0
2017-11-15T04:03:37.469Z,0
2017-11-15T04:04:37.745Z,0
2017-11-15T04:05:37.499Z,0
2017-11-15T04:06:37.766Z,0
2017-11-15T04:07:37.789Z,0
2017-11-15T04:08:37.546Z,0
2017-11-15T04:09:37.561Z,0
2017-11-15T04:10:37.593Z,0
2017-11-15T04:11:37.600Z,0
2017-11-15T04:12:37.621Z,0
2017-11-15T04:13:37.878Z,0
2017-11-15T04:14:37.630Z,0
2017-11-15T04:15:37.655Z,0
2017-11-15T04:16:37.665Z,0
2017-11-15T04:17:37.937Z,0
2017-11-15T04:18:37.690Z,0
2017-11-15T04:19:37.705Z,0
2017-11-15T04:20:37.766Z,0
2017-11-15T04:21:37.992Z,0
2017-11-15T04:22:37.780Z,0
2017-11-15T04:23:38.027Z,0
2017-11-15T04:24:38.035Z,0
2017-11-15T04:25:38.048Z,0
2017-11-15T04:26:37.810Z,0
2017-11-15T04:27:37.830Z,0
2017-11-15T04:28:38.092Z,0
2017-11-15T04:29:37.843Z,0
2017-11-15T04:30:37.866Z,0
2017-11-15T04:31:37.874Z,0
2017-11-15T04:32:37.897Z,0
2017-11-15T04:33:38.170Z,0
2017-11-15T04:34:38.193Z,0
2017-11-15T04:35:37.942Z,0
2017-11-15T04:36:38.266Z,0
2017-11-15T04:37:37.966Z,0
2017-11-15T04:38:37.979Z,0
2017-11-15T04:39:38.263Z,0
2017-11-15T04:40:38.000Z,0
2017-11-15T04:41:38.018Z,0
2017-11-15T04:42:38.283Z,0
2017-11-15T04:43:38.041Z,0
2017-11-15T04:44:38.064Z,0
2017-11-15T04:45:38.335Z,0
2017-11-15T04:46:37.836Z,0
2017-11-15T04:47:38.361Z,0
2017-11-15T04:48:38.374Z,0
2017-11-15T04:49:38.137Z,0
2017-11-15T04:50:38.419Z,0
2017-11-15T04:51:38.164Z,0
2017-11-15T04:52:37.915Z,0
2017-11-15T04:53:38.207Z,0
2017-11-15T04:54:38.215Z,0
2017-11-15T04:55:38.492Z,0
2017-11-15T04:56:38.489Z,0
2017-11-15T04:57:38.509Z,0
2017-11-15T04:58:38.562Z,0
2017-11-15T04:59:38.279Z,0
2017-11-15T05:00:38.555Z,0
2017-11-15T05:01:38.563Z,0
2017-11-15T05:02:38.320Z,0
2017-11-15T05:03:38.332Z,0
2017-11-15T05:04:38.362Z,0
2017-11-15T05:05:38.624Z,0
2017-11-15T05:06:38.377Z,0
2017-11-15T05:07:38.393Z,0
2017-11-15T05:08:38.424Z,0
2017-11-15T05:09:38.675Z,0
2017-11-15T05:10:38.693Z,0
2017-11-15T05:11:38.786Z,0
2017-11-15T05:12:38.226Z,0
2017-11-15T05:13:38.480Z,0
2017-11-15T05:14:38.487Z,0
2017-11-15T05:15:38.506Z,0
2017-11-15T05:16:38.284Z,0
2017-11-15T05:17:38.540Z,0
2017-11-15T05:18:38.805Z,0
2017-11-15T05:19:38.576Z,0
2017-11-15T05:20:38.581Z,0
2017-11-15T05:21:38.849Z,0
2017-11-15T05:22:38.870Z,0
2017-11-15T05:23:38.622Z,0
2017-11-15T05:24:38.645Z,0
2017-11-15T05:25:38.654Z,0
2017-11-15T05:26:38.681Z,0
2017-11-15T05:27:38.684Z,0
2017-11-15T05:28:38.749Z,0
2017-11-15T05:29:38.968Z,0
2017-11-15T05:30:38.977Z,0
2017-11-15T05:31:38.994Z,0
2017-11-15T05:32:38.760Z,0
2017-11-15T05:33:38.778Z,0
2017-11-15T05:34:39.029Z,0
2017-11-15T05:35:38.794Z,0
2017-11-15T05:36:39.081Z,0
2017-11-15T05:37:38.846Z,0
2017-11-15T05:38:38.840Z,0
2017-11-15T05:39:38.891Z,0
2017-11-15T05:40:38.863Z,0
2017-11-15T05:41:38.622Z,0
2017-11-15T05:42:38.909Z,0
2017-11-15T05:43:39.162Z,0
2017-11-15T05:44:38.929Z,0
2017-11-15T05:45:39.215Z,0
2017-11-15T05:46:38.947Z,0
2017-11-15T05:47:39.277Z,0
2017-11-15T05:48:39.239Z,0
2017-11-15T05:49:39.245Z,0
2017-11-15T05:50:39.297Z,0
2017-11-15T05:51:39.269Z,0
2017-11-15T05:52:39.031Z,4
2017-11-15T05:53:39.305Z,4
2017-11-15T05:54:39.332Z,0
2017-11-15T05:55:38.815Z,0
2017-11-15T05:56:39.101Z,4
2017-11-15T05:57:39.373Z,0
2017-11-15T05:58:39.475Z,4
2017-11-15T05:59:39.128Z,8
2017-11-15T06:00:39.423Z,4
2017-11-15T06:01:39.158Z,4
2017-11-15T06:02:39.200Z,8
2017-11-15T06:03:39.503Z,8
2017-11-15T06:04:39.455Z,12
2017-11-15T06:05:39.472Z,16
2017-11-15T06:06:39.491Z,16
2017-11-15T06:07:39.244Z,20
2017-11-15T06:08:39.024Z,24
2017-11-15T06:09:39.470Z,24
2017-11-15T06:10:39.717Z,32
2017-11-15T06:11:39.644Z,32
2017-11-15T06:12:39.788Z,36
2017-11-15T06:13:39.598Z,40
2017-11-15T06:14:39.424Z,44
2017-11-15T06:15:40.014Z,52
2017-11-15T06:16:39.678Z,60
2017-11-15T06:17:39.566Z,64
2017-11-15T06:18:39.722Z,72
2017-11-15T06:19:39.289Z,80
2017-11-15T06:20:39.953Z,92
2017-11-15T06:21:39.600Z,100
2017-11-15T06:22:39.274Z,108
2017-11-15T06:23:39.757Z,116
2017-11-15T06:24:39.689Z,124
2017-11-15T06:25:40.055Z,136
2017-11-15T06:26:40.040Z,144
2017-11-15T06:27:39.981Z,160
2017-11-15T06:28:39.744Z,168
2017-11-15T06:29:39.853Z,180
2017-11-15T06:30:39.692Z,192
2017-11-15T06:31:39.783Z,208
2017-11-15T06:32:40.087Z,224
2017-11-15T06:33:39.773Z,236
2017-11-15T06:34:40.087Z,240
2017-11-15T06:35:39.966Z,252
2017-11-15T06:36:40.241Z,272
2017-11-15T06:37:40.196Z,296
2017-11-15T06:38:39.421Z,316
2017-11-15T06:39:39.686Z,332
2017-11-15T06:40:40.077Z,360
2017-11-15T06:41:39.711Z,396
2017-11-15T06:42:39.469Z,432
2017-11-15T06:43:39.996Z,456
2017-11-15T06:44:39.756Z,472
2017-11-15T06:45:40.055Z,500
2017-11-15T06:46:40.040Z,548
2017-11-15T06:47:40.053Z,596
2017-11-15T06:48:40.071Z,616
2017-11-15T06:49:39.839Z,616
2017-11-15T06:50:39.859Z,624
2017-11-15T06:51:40.124Z,660
2017-11-15T06:52:40.134Z,676
2017-11-15T06:53:40.148Z,672
2017-11-15T06:54:40.174Z,688
2017-11-15T06:55:39.913Z,704
2017-11-15T06:56:39.665Z,720
2017-11-15T06:57:39.692Z,744
2017-11-15T06:58:40.232Z,792
2017-11-15T06:59:39.980Z,828
2017-11-15T07:00:39.986Z,868
2017-11-15T07:01:40.260Z,932
2017-11-15T07:02:40.014Z,1004
2017-11-15T07:03:40.292Z,1040
2017-11-15T07:04:40.045Z,1056
2017-11-15T07:05:40.063Z,1064
2017-11-15T07:06:40.068Z,1032
2017-11-15T07:07:39.825Z,1000
2017-11-15T07:08:40.359Z,1024
2017-11-15T07:09:40.128Z,1052
2017-11-15T07:10:40.230Z,1092
2017-11-15T07:11:40.146Z,1160
2017-11-15T07:12:40.152Z,1264
2017-11-15T07:13:40.165Z,1448
2017-11-15T07:14:40.442Z,1636
2017-11-15T07:15:40.449Z,1704
2017-11-15T07:16:40.207Z,1664
2017-11-15T07:17:39.718Z,1588
2017-11-15T07:18:40.247Z,1544
2017-11-15T07:19:40.513Z,1496
2017-11-15T07:20:40.527Z,1428
2017-11-15T07:21:40.282Z,1472
2017-11-15T07:22:40.294Z,1560
2017-11-15T07:23:40.352Z,1536
2017-11-15T07:24:40.581Z,1568
2017-11-15T07:25:40.385Z,1672
2017-11-15T07:26:40.609Z,1684
2017-11-15T07:27:40.619Z,1728
2017-11-15T07:28:40.651Z,1844
2017-11-15T07:29:40.392Z,1912
2017-11-15T07:30:40.684Z,2076
2017-11-15T07:31:40.423Z,2104
2017-11-15T07:32:40.441Z,2028
2017-11-15T07:33:40.708Z,1924
2017-11-15T07:34:40.470Z,1840
2017-11-15T07:35:40.734Z,1908
2017-11-15T07:36:40.751Z,2020
2017-11-15T07:37:40.527Z,2028
2017-11-15T07:38:40.777Z,2036
2017-11-15T07:39:40.798Z,1996
2017-11-15T07:40:40.863Z,1932
2017-11-15T07:41:40.819Z,1968
2017-11-15T07:42:40.575Z,2076
2017-11-15T07:43:40.852Z,2172
2017-11-15T07:44:40.610Z,2156
2017-11-15T07:45:40.895Z,2100
2017-11-15T07:46:40.648Z,2024
2017-11-15T07:47:40.909Z,1964
2017-11-15T07:48:40.402Z,1980
2017-11-15T07:49:40.688Z,2000
2017-11-15T07:50:40.947Z,1988
2017-11-15T07:51:40.981Z,1932
2017-11-15T07:52:40.978Z,1892
2017-11-15T07:53:40.732Z,1936
2017-11-15T07:54:40.745Z,2020
2017-11-15T07:55:40.515Z,2044
2017-11-15T07:56:40.523Z,2052
2017-11-15T07:57:40.799Z,2064
2017-11-15T07:58:40.566Z,2060
2017-11-15T07:59:40.870Z,2096
2017-11-15T08:00:40.580Z,2168
2017-11-15T08:01:40.593Z,2208
2017-11-15T08:02:40.609Z,2240
2017-11-15T08:03:40.885Z,2372
2017-11-15T08:04:40.648Z,2552
2017-11-15T08:05:40.939Z,2668
2017-11-15T08:06:41.196Z,2752
2017-11-15T08:07:40.932Z,2900
2017-11-15T08:08:40.946Z,2868
2017-11-15T08:09:40.707Z,2828
2017-11-15T08:10:41.237Z,2800
2017-11-15T08:11:40.737Z,2616
2017-11-15T08:12:41.020Z,2500
2017-11-15T08:13:41.032Z,2584
2017-11-15T08:14:41.355Z,2752
2017-11-15T08:15:41.052Z,2928
2017-11-15T08:16:41.329Z,3040
2017-11-15T08:17:41.085Z,3044
2017-11-15T08:18:41.348Z,2964
2017-11-15T08:19:41.113Z,2888
2017-11-15T08:20:40.869Z,2916
2017-11-15T08:21:41.414Z,2964
2017-11-15T08:22:41.157Z,2900
2017-11-15T08:23:41.172Z,2860
2017-11-15T08:24:41.442Z,2776
2017-11-15T08:25:41.203Z,2744
2017-11-15T08:26:41.213Z,2808
2017-11-15T08:27:41.234Z,2952
2017-11-15T08:28:41.282Z,3048
2017-11-15T08:29:41.512Z,3116
2017-11-15T08:30:41.274Z,3260
2017-11-15T08:31:41.031Z,3384
2017-11-15T08:32:41.312Z,3548
2017-11-15T08:33:41.313Z,3656
2017-11-15T08:34:41.358Z,3648
2017-11-15T08:35:41.351Z,3540
2017-11-15T08:36:41.618Z,3380
2017-11-15T08:37:41.372Z,3356
2017-11-15T08:38:41.137Z,3356
2017-11-15T08:39:41.662Z,3408
2017-11-15T08:40:41.425Z,3544
2017-11-15T08:41:41.442Z,3820
2017-11-15T08:42:41.458Z,3948
2017-11-15T08:43:41.471Z,3980
2017-11-15T08:44:41.767Z,3944
2017-11-15T08:45:41.502Z,3928
2017-11-15T08:46:41.766Z,3964
2017-11-15T08:47:41.532Z,3908
2017-11-15T08:48:41.543Z,3864
2017-11-15T08:49:41.812Z,3892
2017-11-15T08:50:41.889Z,3908
2017-11-15T08:51:41.846Z,4020
2017-11-15T08:52:41.342Z,4012
2017-11-15T08:53:41.367Z,4112
2017-11-15T08:54:41.379Z,4288
2017-11-15T08:55:41.645Z,4336
2017-11-15T08:56:41.662Z,4336
2017-11-15T08:57:41.678Z,4460
2017-11-15T08:58:41.967Z,4520
2017-11-15T08:59:41.967Z,4436
2017-11-15T09:00:41.985Z,4440
2017-11-15T09:01:41.490Z,4580
2017-11-15T09:02:41.761Z,4916
2017-11-15T09:03:41.777Z,5284
2017-11-15T09:04:41.526Z,5148
2017-11-15T09:05:42.108Z,4812
2017-11-15T09:06:41.817Z,4604
2017-11-15T09:07:42.113Z,4644
2017-11-15T09:08:41.848Z,5052
2017-11-15T09:09:41.608Z,5428
2017-11-15T09:10:41.876Z,5748
2017-11-15T09:11:41.888Z,5560
2017-11-15T09:12:42.169Z,5032
2017-11-15T09:13:41.937Z,4772
2017-11-15T09:14:41.955Z,4968
2017-11-15T09:15:41.952Z,5268
2017-11-15T09:16:41.972Z,5652
2017-11-15T09:17:41.726Z,6304
2017-11-15T09:18:41.745Z,6392
2017-11-15T09:19:42.033Z,5808
2017-11-15T09:20:42.296Z,4916
2017-11-15T09:21:42.105Z,4500
2017-11-15T09:22:42.318Z,4356
2017-11-15T09:23:41.825Z,4424
2017-11-15T09:24:41.844Z,4652
2017-11-15T09:25:42.131Z,5576
2017-11-15T09:26:42.387Z,6364
2017-11-15T09:27:42.156Z,6840
2017-11-15T09:28:42.430Z,5808
2017-11-15T09:29:42.465Z,5156
2017-11-15T09:30:42.459Z,4912
2017-11-15T09:31:42.464Z,4728
2017-11-15T09:32:42.491Z,4520
2017-11-15T09:33:41.980Z,4548
2017-11-15T09:34:42.251Z,5172
2017-11-15T09:35:42.523Z,5976
2017-11-15T09:36:42.549Z,6284
2017-11-15T09:37:42.609Z,6660
2017-11-15T09:38:42.319Z,7140
2017-11-15T09:39:42.618Z,7564
2017-11-15T09:40:42.604Z,7248
2017-11-15T09:41:42.385Z,6668
2017-11-15T09:42:42.635Z,6184
2017-11-15T09:43:42.657Z,7364
2017-11-15T09:44:42.420Z,7112
2017-11-15T09:45:42.693Z,6440
2017-11-15T09:46:42.711Z,6704
2017-11-15T09:47:42.718Z,7288
2017-11-15T09:48:42.750Z,7980
2017-11-15T09:49:42.488Z,8424
2017-11-15T09:50:42.258Z,8944
2017-11-15T09:51:42.529Z,9236
2017-11-15T09:52:42.800Z,9488
2017-11-15T09:53:42.043Z,10260
2017-11-15T09:54:42.835Z,10576
2017-11-15T09:55:42.892Z,10216
2017-11-15T09:56:42.372Z,11212
2017-11-15T09:57:42.622Z,11516
2017-11-15T09:58:42.936Z,10432
2017-11-15T09:59:42.674Z,9180
2017-11-15T10:00:42.416Z,8888
2017-11-15T10:01:42.966Z,9032
2017-11-15T10:02:42.965Z,8724
2017-11-15T10:03:42.765Z,7920
2017-11-15T10:04:42.747Z,7208
2017-11-15T10:05:43.030Z,6812
2017-11-15T10:06:43.031Z,7032
2017-11-15T10:07:42.796Z,7136
2017-11-15T10:08:42.554Z,6756
2017-11-15T10:09:42.833Z,6344
2017-11-15T10:10:43.159Z,6432
2017-11-15T10:11:43.140Z,6652
2017-11-15T10:12:42.882Z,7552
2017-11-15T10:13:43.155Z,8312
2017-11-15T10:14:42.914Z,7900
2017-11-15T10:15:42.935Z,7276
2017-11-15T10:16:43.211Z,7172
2017-11-15T10:17:42.961Z,7532
2017-11-15T10:18:43.235Z,7624
2017-11-15T10:19:42.991Z,7348
2017-11-15T10:20:42.753Z,7016
2017-11-15T10:21:43.037Z,7108
2017-11-15T10:22:43.298Z,7536
2017-11-15T10:23:43.065Z,8428
2017-11-15T10:24:43.336Z,8456
2017-11-15T10:25:43.401Z,8176
2017-11-15T10:26:43.107Z,12404
2017-11-15T10:27:43.385Z,9140
2017-11-15T10:28:42.887Z,8088
2017-11-15T10:29:42.646Z,8268
2017-11-15T10:30:43.429Z,8888
2017-11-15T10:31:43.200Z,8464
2017-11-15T10:32:43.462Z,7640
2017-11-15T10:33:43.224Z,8360
2017-11-15T10:34:42.995Z,8632
2017-11-15T10:35:43.512Z,8184
2017-11-15T10:36:43.553Z,8408
2017-11-15T10:37:43.294Z,9008
2017-11-15T10:38:43.598Z,9148
2017-11-15T10:39:43.335Z,9276
2017-11-15T10:40:43.649Z,9688
2017-11-15T10:41:43.727Z,10992
2017-11-15T10:42:43.645Z,18336
2017-11-15T10:43:43.134Z,16640
2017-11-15T10:44:43.887Z,41600
2017-11-15T10:45:43.686Z,39200
2017-11-15T10:46:42.921Z,21184
2017-11-15T10:47:43.720Z,26720
2017-11-15T10:48:43.741Z,19488
2017-11-15T10:49:43.525Z,16512
2017-11-15T10:50:43.799Z,13840
2017-11-15T10:51:43.535Z,12316
2017-11-15T10:52:43.546Z,11044
2017-11-15T10:53:43.840Z,10832
2017-11-15T10:54:43.841Z,20960
2017-11-15T10:55:43.865Z,10720
2017-11-15T10:56:43.945Z,8952
2017-11-15T10:57:43.646Z,7380
2017-11-15T10:58:43.679Z,7144
2017-11-15T10:59:43.168Z,8496
2017-11-15T11:00:43.725Z,15196
2017-11-15T11:01:43.727Z,12788
2017-11-15T11:02:43.746Z,11656
2017-11-15T11:03:44.015Z,10784
2017-11-15T11:04:44.031Z,16416
2017-11-15T11:05:44.058Z,33856
2017-11-15T11:06:43.828Z,19840
2017-11-15T11:07:44.088Z,20416
2017-11-15T11:08:43.864Z,19328
2017-11-15T11:09:43.884Z,22208
2017-11-15T11:10:43.632Z,35040
2017-11-15T11:11:43.966Z,28928
2017-11-15T11:12:43.684Z,51168
2017-11-15T11:13:43.952Z,25440
2017-11-15T11:14:44.227Z,26080
2017-11-15T11:15:44.277Z,37920
2017-11-15T11:16:44.274Z,20800
2017-11-15T11:17:44.300Z,17728
2017-11-15T11:18:43.802Z,17824
2017-11-15T11:19:44.353Z,48896
2017-11-15T11:20:44.113Z,39168
2017-11-15T11:21:44.127Z,57216
2017-11-15T11:22:44.169Z,43040
2017-11-15T11:23:44.426Z,24768
2017-11-15T11:24:44.220Z,27936
2017-11-15T11:25:44.490Z,17920
2017-11-15T11:26:44.569Z,21408
2017-11-15T11:27:44.515Z,16512
2017-11-15T11:28:44.294Z,15436
2017-11-15T11:29:44.556Z,13536
2017-11-15T11:30:44.320Z,15240
2017-11-15T11:31:44.088Z,52544
2017-11-15T11:32:44.383Z,12324
2017-11-15T11:33:44.658Z,13276
2017-11-15T11:34:44.413Z,19648
2017-11-15T11:35:44.695Z,14920
2017-11-15T11:36:44.459Z,11072
2017-11-15T11:37:44.477Z,13768
2017-11-15T11:38:44.762Z,28128
2017-11-15T11:39:44.523Z,31968
2017-11-15T11:40:44.280Z,34912
2017-11-15T11:41:44.875Z,16124
2017-11-15T11:42:44.837Z,55616
2017-11-15T11:43:44.596Z,58336
2017-11-15T11:44:44.639Z,29536
2017-11-15T11:45:44.390Z,27424
2017-11-15T11:46:44.676Z,20000
2017-11-15T11:47:44.941Z,28800
2017-11-15T11:48:44.969Z,34784
2017-11-15T11:49:44.488Z,28672
2017-11-15T11:50:44.757Z,17280
2017-11-15T11:51:44.779Z,47232
2017-11-15T11:52:44.284Z,29536
2017-11-15T11:53:44.562Z,18720
2017-11-15T11:54:45.100Z,19360
2017-11-15T11:55:44.865Z,29600
2017-11-15T11:56:45.218Z,20704
2017-11-15T11:57:45.184Z,56512
2017-11-15T11:58:45.193Z,56736
2017-11-15T11:59:45.228Z,58112
2017-11-15T12:00:44.719Z,61344
2017-11-15T12:01:44.742Z,63488
2017-11-15T12:02:44.765Z,62624
2017-11-15T12:03:45.181Z,63104
2017-11-15T12:04:45.358Z,62848
2017-11-15T12:05:45.372Z,61856
2017-11-15T12:06:45.387Z,58048
2017-11-15T12:07:45.403Z,53888
2017-11-15T12:08:45.434Z,55968
2017-11-15T12:09:45.471Z,60704
2017-11-15T12:10:45.488Z,62688
2017-11-15T12:11:45.317Z,58560
2017-11-15T12:12:45.549Z,33344
2017-11-15T12:13:45.314Z,38560
2017-11-15T12:14:45.076Z,29344
2017-11-15T12:15:45.632Z,18336
2017-11-15T12:16:45.383Z,22048
2017-11-15T12:17:45.156Z,19680
2017-11-15T12:18:45.451Z,20672
2017-11-15T12:19:45.466Z,22240
2017-11-15T12:20:45.524Z,22752
2017-11-15T12:21:45.798Z,15608
2017-11-15T12:22:45.559Z,16704
2017-11-15T12:23:45.571Z,17696
2017-11-15T12:24:45.606Z,44128
2017-11-15T12:25:45.879Z,52032
2017-11-15T12:26:45.652Z,22528
2017-11-15T12:27:45.974Z,21888
2017-11-15T12:28:45.961Z,74752
2017-11-15T12:29:45.721Z,64000
2017-11-15T12:30:45.753Z,68544
2017-11-15T12:31:46.040Z,74880
2017-11-15T12:32:46.073Z,75360
2017-11-15T12:33:45.568Z,74336
2017-11-15T12:34:45.584Z,70144
2017-11-15T12:35:46.137Z,45344
2017-11-15T12:36:45.473Z,38464
2017-11-15T12:37:46.172Z,20832
2017-11-15T12:38:45.946Z,21504
2017-11-15T12:39:46.308Z,16832
2017-11-15T12:40:46.260Z,14852
2017-11-15T12:41:46.025Z,17472
2017-11-15T12:42:46.359Z,16160
2017-11-15T12:43:46.070Z,14908
2017-11-15T12:44:46.354Z,13932
2017-11-15T12:45:45.862Z,14200
2017-11-15T12:46:46.425Z,14932
2017-11-15T12:47:45.917Z,19200
2017-11-15T12:48:46.447Z,61504
2017-11-15T12:49:45.958Z,61632
2017-11-15T12:50:46.498Z,35680
2017-11-15T12:51:46.269Z,67360
2017-11-15T12:52:46.284Z,25856
2017-11-15T12:53:46.565Z,25024
2017-11-15T12:54:46.334Z,51904
2017-11-15T12:55:46.615Z,31456
2017-11-15T12:56:46.378Z,71168
2017-11-15T12:57:46.709Z,74048
2017-11-15T12:58:46.681Z,55936
2017-11-15T12:59:46.702Z,26720
2017-11-15T13:00:46.482Z,28864
2017-11-15T13:01:46.757Z,67232
2017-11-15T13:02:46.526Z,34720
2017-11-15T13:03:46.554Z,38368
2017-11-15T13:04:46.829Z,23616
2017-11-15T13:05:46.853Z,45280
2017-11-15T13:06:46.628Z,27136
2017-11-15T13:07:46.644Z,57792
2017-11-15T13:08:46.929Z,67296
2017-11-15T13:09:46.694Z,61472
2017-11-15T13:10:46.726Z,54944
2017-11-15T13:11:47.009Z,38496
2017-11-15T13:12:47.025Z,43424
2017-11-15T13:13:46.536Z,33568
2017-11-15T13:14:46.876Z,41536
2017-11-15T13:15:47.095Z,49440
2017-11-15T13:16:47.120Z,50432
2017-11-15T13:17:46.892Z,62528
2017-11-15T13:18:47.175Z,58368
2017-11-15T13:19:47.197Z,59040
2017-11-15T13:20:47.221Z,50432
2017-11-15T13:21:47.045Z,49088
2017-11-15T13:22:47.018Z,57056
2017-11-15T13:23:47.115Z,65440
2017-11-15T13:24:47.352Z,70816
2017-11-15T13:25:47.100Z,72384
2017-11-15T13:26:46.867Z,71392
2017-11-15T13:27:46.891Z,66464
2017-11-15T13:28:47.430Z,55520
2017-11-15T13:29:47.259Z,40768
2017-11-15T13:30:47.489Z,36384
2017-11-15T13:31:47.253Z,28192
2017-11-15T13:32:47.284Z,15828
2017-11-15T13:33:47.309Z,16704
2017-11-15T13:34:47.344Z,13680
2017-11-15T13:35:47.364Z,14972
2017-11-15T13:36:47.390Z,15384
2017-11-15T13:37:47.673Z,15372
2017-11-15T13:38:47.439Z,15012
2017-11-15T13:39:47.728Z,14932
2017-11-15T13:40:47.229Z,15832
2017-11-15T13:41:47.252Z,16512
2017-11-15T13:42:47.789Z,16736
2017-11-15T13:43:47.571Z,15632
2017-11-15T13:44:47.855Z,14800
2017-11-15T13:45:47.659Z,14600
2017-11-15T13:46:47.902Z,14448
2017-11-15T13:47:47.651Z,14260
2017-11-15T13:48:47.680Z,14260
2017-11-15T13:49:47.958Z,13548
2017-11-15T13:50:47.731Z,14064